createdAt,value
2022-10-20T00:01:16.665Z,13.96
2022-10-20T00:06:17.284Z,13.53
2022-10-20T00:11:16.590Z,13.84
2022-10-20T00:16:15.167Z,13.87
2022-10-20T00:21:15.884Z,13.62
2022-10-20T00:26:15.421Z,13.89
2022-10-20T00:31:13.559Z,13.77
2022-10-20T00:36:14.846Z,13.52
2022-10-20T00:41:13.334Z,13.09
2022-10-20T00:46:12.515Z,13.77
2022-10-20T00:51:15.037Z,13.32
2022-10-20T00:56:13.590Z,13.59
2022-10-20T01:01:13.432Z,13.47
2022-10-20T01:06:12.253Z,13.53
2022-10-20T01:11:35.146Z,13.72
2022-10-20T01:16:46.668Z,13.95
2022-10-20T01:22:02.396Z,13.56
2022-10-20T01:27:26.283Z,13.84
2022-10-20T01:32:36.420Z,13.69
2022-10-20T01:37:48.861Z,13.37
2022-10-20T01:42:50.342Z,13.61
2022-10-20T01:47:51.683Z,13.42
2022-10-20T01:52:49.005Z,13.64
2022-10-20T01:57:58.945Z,12.98
2022-10-20T02:03:08.411Z,13.47
2022-10-20T02:08:13.402Z,13.31
2022-10-20T02:13:12.658Z,13.04
2022-10-20T02:18:14.303Z,13.03
2022-10-20T02:23:11.965Z,12.74
2022-10-20T02:28:12.597Z,12.42
2022-10-20T02:33:11.819Z,12.42
2022-10-20T02:38:08.933Z,12.46
2022-10-20T02:43:06.002Z,11.97
2022-10-20T02:48:05.178Z,12.08
2022-10-20T02:53:06.154Z,12.26
2022-10-20T02:58:07.466Z,11.89
2022-10-20T03:03:06.219Z,12.09
2022-10-20T03:08:05.299Z,11.69
2022-10-20T03:13:11.696Z,12.21
2022-10-20T03:18:08.509Z,12.13
2022-10-20T03:23:07.263Z,11.85
2022-10-20T03:28:05.681Z,11.88
2022-10-20T03:33:02.859Z,12.02
2022-10-20T03:38:05.889Z,11.63
2022-10-20T03:43:03.011Z,11.65
2022-10-20T03:48:00.599Z,11.86
2022-10-20T03:52:58.099Z,11.48
2022-10-20T03:57:55.137Z,11.66
2022-10-20T04:02:52.668Z,11.02
2022-10-20T04:07:54.013Z,11.78
2022-10-20T04:12:51.913Z,11.37
2022-10-20T04:17:48.979Z,11.77
2022-10-20T04:22:51.338Z,11.68
2022-10-20T04:27:48.966Z,11.73
2022-10-20T04:32:46.074Z,11.74
2022-10-20T04:37:49.874Z,11.59
2022-10-20T04:42:47.681Z,11.69
2022-10-20T04:47:44.567Z,11.84
2022-10-20T04:52:41.862Z,11.56
2022-10-20T04:57:41.838Z,11.83
2022-10-20T05:02:45.777Z,11.62
2022-10-20T05:07:42.683Z,12.17
2022-10-20T05:12:42.127Z,12.41
2022-10-20T05:17:39.410Z,12.57
2022-10-20T05:22:44.432Z,12.24
2022-10-20T05:27:44.000Z,12.58
2022-10-20T05:32:42.849Z,12.53
2022-10-20T05:38:03.631Z,12.06
2022-10-20T05:43:01.055Z,12.49
2022-10-20T05:47:59.103Z,13.11
2022-10-20T05:53:02.558Z,13.52
2022-10-20T05:58:00.744Z,14.00
2022-10-20T06:02:58.628Z,14.07
2022-10-20T06:07:57.821Z,14.10
2022-10-20T06:13:11.948Z,14.08
2022-10-20T06:18:10.846Z,13.60
2022-10-20T06:23:19.966Z,14.21
2022-10-20T06:28:19.932Z,14.41
2022-10-20T06:33:18.830Z,14.51
2022-10-20T06:38:43.390Z,14.42
2022-10-20T06:43:40.911Z,14.72
2022-10-20T06:48:38.537Z,14.32
2022-10-20T06:53:36.722Z,14.25
2022-10-20T06:58:37.600Z,14.13
2022-10-20T07:03:36.654Z,13.47
2022-10-20T07:08:40.280Z,14.11
2022-10-20T07:13:39.171Z,14.00
2022-10-20T07:23:47.084Z,14.28
2022-10-20T07:28:54.654Z,14.38
2022-10-20T07:34:06.972Z,14.33
2022-10-20T07:39:12.216Z,15.38
2022-10-20T07:44:09.998Z,15.81
2022-10-20T07:54:26.702Z,16.19
2022-10-20T07:59:24.490Z,16.29
2022-10-20T08:04:21.789Z,16.03
2022-10-20T08:09:18.880Z,15.80
2022-10-20T08:14:40.892Z,15.68
2022-10-20T08:24:49.806Z,15.85
2022-10-20T08:29:55.082Z,15.90
2022-10-20T08:34:58.048Z,15.89
2022-10-20T08:40:00.288Z,16.72
2022-10-20T08:45:01.221Z,17.48
2022-10-20T08:50:28.322Z,17.56
2022-10-20T08:55:39.475Z,18.51
2022-10-20T09:00:39.002Z,18.96
2022-10-20T09:05:44.894Z,18.22
2022-10-20T09:10:52.468Z,17.86
2022-10-20T09:15:57.132Z,17.76
2022-10-20T09:20:58.849Z,18.19
2022-10-20T09:26:24.709Z,18.56
2022-10-20T09:31:35.956Z,18.21
2022-10-20T09:36:35.306Z,18.43
2022-10-20T09:41:35.436Z,18.93
2022-10-20T09:46:53.145Z,18.91
2022-10-20T09:51:53.854Z,18.76
2022-10-20T09:56:52.383Z,19.02
2022-10-20T10:02:31.950Z,19.09
2022-10-20T10:07:33.210Z,19.91
2022-10-20T10:12:32.689Z,19.78
2022-10-20T10:17:31.886Z,19.57
2022-10-20T10:22:30.959Z,19.64
2022-10-20T10:27:49.169Z,19.21
2022-10-20T10:32:48.030Z,19.27
2022-10-20T10:37:53.253Z,19.13
2022-10-20T10:43:29.091Z,19.01
2022-10-20T10:48:48.003Z,18.96
2022-10-20T10:53:59.499Z,18.52
2022-10-20T10:59:01.702Z,18.62
2022-10-20T11:04:26.583Z,18.90
2022-10-20T11:09:31.253Z,19.01
2022-10-20T11:14:45.694Z,18.78
2022-10-20T11:20:21.860Z,18.50
2022-10-20T11:25:32.293Z,18.48
2022-10-20T11:30:33.810Z,18.59
2022-10-20T11:35:39.851Z,18.08
2022-10-20T11:40:44.114Z,18.33
2022-10-20T11:45:51.487Z,18.30
2022-10-20T11:56:40.187Z,18.12
2022-10-20T12:02:02.753Z,17.90
2022-10-20T12:07:41.478Z,17.56
2022-10-20T12:12:53.073Z,17.87
2022-10-20T12:17:54.134Z,18.30
2022-10-20T12:23:23.476Z,17.68
2022-10-20T12:29:16.022Z,17.91
2022-10-20T12:34:23.682Z,18.19
2022-10-20T12:39:21.877Z,18.18
2022-10-20T12:44:37.753Z,18.09
2022-10-20T12:49:47.892Z,18.12
2022-10-20T12:55:11.712Z,17.54
2022-10-20T13:00:50.445Z,17.25
2022-10-20T13:05:56.091Z,17.89
2022-10-20T13:11:35.342Z,18.07
2022-10-20T13:16:36.407Z,17.71
2022-10-20T13:27:19.170Z,17.76
2022-10-20T13:32:25.657Z,17.15
2022-10-20T13:37:41.263Z,17.32
2022-10-20T13:42:54.204Z,17.07
2022-10-20T13:48:07.802Z,16.81
2022-10-20T13:53:13.650Z,17.26
2022-10-20T13:58:33.084Z,17.12
2022-10-20T14:04:01.609Z,16.49
2022-10-20T14:09:08.983Z,16.92
2022-10-20T14:14:34.091Z,16.84
2022-10-20T14:19:35.153Z,16.63
2022-10-20T14:24:36.507Z,16.59
2022-10-20T14:29:38.517Z,16.31
2022-10-20T14:35:05.330Z,16.80
2022-10-20T14:40:29.739Z,16.70
2022-10-20T14:50:36.728Z,16.17
2022-10-20T14:55:43.401Z,16.59
2022-10-20T15:00:43.686Z,16.27
2022-10-20T15:05:56.665Z,15.85
2022-10-20T15:16:43.765Z,16.17
2022-10-20T15:22:16.088Z,16.07
2022-10-20T15:27:19.505Z,15.93
2022-10-20T15:32:20.409Z,15.21
2022-10-20T15:37:23.633Z,14.94
2022-10-20T15:42:26.181Z,14.92
2022-10-20T15:47:25.342Z,15.61
2022-10-20T15:53:10.237Z,15.19
2022-10-20T15:58:15.663Z,15.14
2022-10-20T16:03:26.070Z,15.31
2022-10-20T16:08:24.456Z,15.20
2022-10-20T16:13:30.314Z,15.26
2022-10-20T16:18:28.419Z,15.10
2022-10-20T16:23:36.862Z,14.81
2022-10-20T16:29:23.833Z,14.93
2022-10-20T16:34:37.812Z,14.39
2022-10-20T16:39:40.855Z,14.79
2022-10-20T16:44:42.275Z,14.77
2022-10-20T16:49:45.558Z,13.99
2022-10-20T16:54:48.977Z,14.25
2022-10-20T16:59:50.135Z,14.23
2022-10-20T17:04:50.553Z,13.69
2022-10-20T17:09:59.263Z,13.48
2022-10-20T17:15:13.206Z,13.43
2022-10-20T17:20:25.163Z,13.36
2022-10-20T17:25:29.325Z,13.34
2022-10-20T17:30:49.769Z,14.10
2022-10-20T17:36:03.575Z,13.50
2022-10-20T17:41:06.735Z,13.90
2022-10-20T17:46:11.455Z,13.96
2022-10-20T17:51:14.251Z,13.40
2022-10-20T17:56:18.866Z,14.06
2022-10-20T18:01:20.405Z,13.92
2022-10-20T18:06:19.357Z,14.08
2022-10-20T18:11:22.067Z,14.01
2022-10-20T18:16:24.216Z,13.85
2022-10-20T18:21:21.715Z,13.37
2022-10-20T18:26:27.814Z,13.73
2022-10-20T18:31:31.949Z,14.02
2022-10-20T18:36:30.251Z,14.04
2022-10-20T18:41:43.089Z,14.04
2022-10-20T18:46:51.229Z,13.66
2022-10-20T18:51:53.163Z,13.97
2022-10-20T18:56:53.028Z,13.74
2022-10-20T19:01:50.826Z,13.66
2022-10-20T19:06:58.335Z,13.85
2022-10-20T19:12:00.481Z,13.82
2022-10-20T19:16:59.135Z,13.35
2022-10-20T19:21:56.902Z,13.58
2022-10-20T19:27:25.588Z,13.36
2022-10-20T19:32:20.749Z,13.60
2022-10-20T19:37:26.417Z,12.97
2022-10-20T19:42:24.141Z,13.65
2022-10-20T19:47:22.265Z,13.43
2022-10-20T19:52:25.569Z,12.90
2022-10-20T19:57:37.642Z,13.39
2022-10-20T20:02:37.897Z,13.39
2022-10-20T20:07:36.090Z,13.50
2022-10-20T20:12:36.271Z,12.71
2022-10-20T20:17:51.386Z,12.72
2022-10-20T20:22:54.597Z,12.24
2022-10-20T20:27:59.114Z,12.44
2022-10-20T20:32:59.356Z,12.42
2022-10-20T20:38:06.068Z,12.14
2022-10-20T20:43:08.222Z,12.26
2022-10-20T20:48:06.726Z,12.05
2022-10-20T20:53:08.620Z,12.11
2022-10-20T20:58:09.007Z,12.88
2022-10-20T21:03:19.888Z,12.42
2022-10-20T21:08:20.906Z,11.59
2022-10-20T21:13:22.439Z,11.80
2022-10-20T21:18:24.754Z,11.66
2022-10-20T21:23:31.081Z,11.36
2022-10-20T21:28:39.714Z,10.54
2022-10-20T21:33:39.170Z,10.38
2022-10-20T21:38:40.558Z,11.04
2022-10-20T21:43:45.611Z,10.71
2022-10-20T21:48:43.815Z,10.75
2022-10-20T21:53:41.970Z,10.41
2022-10-20T21:58:40.949Z,11.23
2022-10-20T22:03:39.181Z,11.12
2022-10-20T22:08:37.886Z,11.03
2022-10-20T22:13:35.561Z,11.04
2022-10-20T22:18:36.370Z,11.30
2022-10-20T22:23:33.859Z,11.27
2022-10-20T22:28:32.105Z,11.22
2022-10-20T22:33:36.717Z,11.30
2022-10-20T22:38:35.606Z,10.99
2022-10-20T22:43:32.576Z,11.20
2022-10-20T22:48:30.150Z,10.91
2022-10-20T22:53:30.165Z,11.02
2022-10-20T22:58:28.687Z,11.35
2022-10-20T23:03:26.524Z,11.27
2022-10-20T23:08:36.438Z,11.10
2022-10-20T23:13:34.366Z,11.54
2022-10-20T23:18:31.249Z,11.26
2022-10-20T23:23:28.511Z,11.20
2022-10-20T23:28:25.484Z,11.16
2022-10-20T23:33:23.078Z,10.63
2022-10-20T23:38:20.342Z,10.93
2022-10-20T23:43:18.643Z,10.88
2022-10-20T23:48:15.547Z,11.03
2022-10-20T23:53:13.409Z,10.74
2022-10-20T23:58:12.659Z,10.74
